Time;durP1;ratioP1;P1;durP2;ratioP2;P2;SDS_P1;SDS_P2;PMS_P1;PMS_P2;Temp;Humidity;BMP_temperature;BMP_pressure;BME280_temperature;BME280_humidity;BME280_pressure;Samples;Min_cycle;Max_cycle;Signal;HPM_P1;HPM_P2
2023/09/22 00:01:55;;;;;;;2.13;0.60;;;;;;;18.19;90.85;98670.34;10351269;28;20061;-65
2023/09/22 00:06:56;;;;;;;1.48;0.50;;;;;;;18.12;89.78;98659.59;10338485;28;20573;-62
2023/09/22 00:11:58;;;;;;;1.48;0.40;;;;;;;18.13;90.77;98672.00;10286551;28;20560;-63
2023/09/22 00:16:59;;;;;;;1.25;0.43;;;;;;;18.14;90.33;98662.09;10305641;28;20050;-63
2023/09/22 00:22:02;;;;;;;2.20;0.70;;;;;;;18.12;90.33;98677.59;10307952;28;20136;-63
2023/09/22 00:27:03;;;;;;;1.38;0.60;;;;;;;18.05;90.18;98674.13;10305965;28;20579;-62
2023/09/22 00:32:06;;;;;;;2.17;0.65;;;;;;;18.08;89.94;98679.91;10310609;28;20049;-63
2023/09/22 00:37:08;;;;;;;4.03;0.93;;;;;;;18.05;90.04;98677.63;10302301;28;20166;-64
2023/09/22 00:42:09;;;;;;;1.63;0.77;;;;;;;17.97;90.36;98697.53;10299775;28;20185;-64
2023/09/22 00:47:14;;;;;;;1.85;0.60;;;;;;;17.72;91.15;98691.94;10306980;28;20129;-62
2023/09/22 00:52:18;;;;;;;1.45;0.70;;;;;;;17.74;91.57;98683.66;10302456;28;20046;-63
2023/09/22 00:57:21;;;;;;;2.30;0.82;;;;;;;17.67;90.49;98678.28;10341717;28;20100;-63
2023/09/22 01:02:23;;;;;;;1.60;0.50;;;;;;;17.64;90.26;98701.06;10346769;28;20107;-64
2023/09/22 01:07:25;;;;;;;0.63;0.30;;;;;;;17.59;90.04;98692.75;10344674;28;20062;-64
2023/09/22 01:12:27;;;;;;;1.20;0.68;;;;;;;17.57;89.38;98697.53;10343339;28;20100;-63
2023/09/22 01:17:28;;;;;;;1.85;0.90;;;;;;;17.36;89.85;98685.09;10342662;28;20532;-63
2023/09/22 01:22:33;;;;;;;1.90;0.90;;;;;;;17.54;89.19;98692.56;10343793;28;20053;-63
2023/09/22 01:27:35;;;;;;;0.90;0.40;;;;;;;17.55;87.63;98704.13;10343993;28;20139;-64
2023/09/22 01:32:37;;;;;;;1.92;0.70;;;;;;;17.45;86.16;98708.06;10343435;28;20072;-63
2023/09/22 01:37:55;;;;;;;1.52;0.73;;;;;;;17.48;87.23;98715.72;10340493;28;20049;-62
2023/09/22 01:42:56;;;;;;;1.00;0.73;;;;;;;17.51;86.02;98727.94;10342922;28;20091;-63
2023/09/22 01:47:57;;;;;;;0.63;0.40;;;;;;;17.52;85.79;98715.31;10345026;28;20060;-63
2023/09/22 01:52:59;;;;;;;1.23;0.90;;;;;;;17.54;84.45;98724.84;10344085;28;20121;-64
2023/09/22 01:58:01;;;;;;;1.88;0.90;;;;;;;17.38;82.63;98749.44;10326919;28;20060;-63
2023/09/22 02:03:03;;;;;;;1.90;0.60;;;;;;;17.33;83.14;98752.75;10342006;28;20053;-62
2023/09/22 02:08:04;;;;;;;1.00;0.40;;;;;;;17.36;83.63;98762.28;10341832;28;20520;-63
2023/09/22 02:13:08;;;;;;;6.28;1.10;;;;;;;17.30;83.28;98742.41;10344828;28;20385;-64
2023/09/22 02:18:11;;;;;;;4.93;0.60;;;;;;;17.14;83.85;98703.28;10340700;28;20057;-65
2023/09/22 02:23:13;;;;;;;3.70;1.00;;;;;;;17.24;83.91;98748.59;10343484;28;20053;-63
2023/09/22 02:28:14;;;;;;;1.33;0.60;;;;;;;17.20;83.79;98752.72;10340315;28;20082;-64
2023/09/22 02:33:16;;;;;;;3.17;0.82;;;;;;;17.18;82.33;98747.53;10332848;28;20095;-63
2023/09/22 02:38:17;;;;;;;1.20;0.80;;;;;;;17.25;82.20;98745.69;10342466;28;20068;-63
2023/09/22 02:43:20;;;;;;;2.03;0.60;;;;;;;17.09;81.10;98735.31;10342612;28;20060;-64
2023/09/22 02:48:21;;;;;;;1.00;0.52;;;;;;;17.16;82.51;98709.28;10322554;28;20053;-64
2023/09/22 02:53:23;;;;;;;1.60;0.75;;;;;;;17.17;83.09;98705.53;10334525;28;20527;-66
2023/09/22 02:58:25;;;;;;;1.42;0.60;;;;;;;17.13;81.75;98736.59;10348538;28;20128;-64
2023/09/22 03:03:26;;;;;;;1.40;0.63;;;;;;;17.16;81.84;98708.44;10348927;28;20358;-64
2023/09/22 03:08:28;;;;;;;1.30;0.82;;;;;;;17.18;80.92;98701.03;10347092;28;20532;-64
2023/09/22 03:13:29;;;;;;;1.70;0.75;;;;;;;17.18;81.39;98717.97;10353525;28;20064;-63
2023/09/22 03:18:30;;;;;;;1.35;0.70;;;;;;;17.11;80.91;98726.03;10350289;28;20145;-63
2023/09/22 03:23:32;;;;;;;1.23;0.68;;;;;;;17.13;79.92;98766.16;10349704;28;20075;-65
2023/09/22 03:28:33;;;;;;;1.42;0.63;;;;;;;17.06;79.72;98768.00;10348318;28;20100;-63
2023/09/22 03:33:35;;;;;;;0.95;0.47;;;;;;;17.01;79.61;98762.38;10345177;28;20551;-63
2023/09/22 03:38:37;;;;;;;0.98;0.70;;;;;;;16.92;79.17;98783.25;10349431;28;20054;-64
2023/09/22 03:43:38;;;;;;;4.32;0.90;;;;;;;16.87;78.84;98765.00;10354441;28;20540;-64
2023/09/22 03:48:40;;;;;;;2.53;0.75;;;;;;;16.79;79.73;98757.09;10348464;28;20606;-64
2023/09/22 03:53:41;;;;;;;1.73;0.82;;;;;;;16.86;79.78;98755.28;10351540;28;20052;-63
2023/09/22 03:58:43;;;;;;;9.23;1.00;;;;;;;16.93;80.34;98777.66;10346086;28;20065;-64
2023/09/22 04:03:44;;;;;;;1.77;0.65;;;;;;;16.91;80.15;98770.81;10348774;28;20857;-63
2023/09/22 04:08:51;;;;;;;2.63;0.98;;;;;;;16.93;80.23;98791.09;10349480;28;20060;-64
2023/09/22 04:13:53;;;;;;;2.10;0.70;;;;;;;16.94;80.61;98821.50;10349234;28;20187;-63
2023/09/22 04:18:54;;;;;;;2.78;0.77;;;;;;;16.89;81.33;98822.09;10346806;28;20073;-63
2023/09/22 04:23:59;;;;;;;2.80;0.55;;;;;;;16.83;81.79;98828.22;10347919;28;20053;-64
2023/09/22 04:29:01;;;;;;;1.63;0.47;;;;;;;16.65;82.57;98826.06;10342351;28;20076;-63
2023/09/22 04:34:03;;;;;;;2.50;0.68;;;;;;;16.61;83.24;98822.94;10337498;28;20157;-63
2023/09/22 04:39:04;;;;;;;2.03;0.70;;;;;;;16.60;83.73;98807.84;10346129;28;20082;-64
2023/09/22 04:44:06;;;;;;;2.92;0.90;;;;;;;16.66;83.81;98794.66;10349612;28;20144;-63
2023/09/22 04:49:10;;;;;;;3.20;0.73;;;;;;;16.60;84.18;98797.13;10344097;28;20538;-63
2023/09/22 04:54:11;;;;;;;1.93;1.10;;;;;;;16.46;84.52;98778.44;10329403;28;20460;-66
2023/09/22 04:59:15;;;;;;;3.03;0.85;;;;;;;16.55;84.60;98804.91;10347486;28;20068;-62
2023/09/22 05:04:17;;;;;;;;;;;;;;;16.60;84.82;98813.22;10337628;28;20562;-64
2023/09/22 05:09:19;;;;;;;2.92;0.70;;;;;;;16.50;85.03;98796.63;10345271;28;19947;-64
2023/09/22 05:14:20;;;;;;;2.58;0.70;;;;;;;16.55;84.74;98804.09;10343281;28;20144;-63
2023/09/22 05:19:21;;;;;;;2.35;0.85;;;;;;;16.51;84.72;98795.59;10345841;28;20049;-62
2023/09/22 05:24:26;;;;;;;;;;;;;;;16.60;84.77;98812.38;10346293;28;20319;-64
2023/09/22 05:29:28;;;;;;;2.80;1.02;;;;;;;16.57;84.71;98807.41;10345077;28;20388;-61
2023/09/22 05:34:29;;;;;;;2.20;0.90;;;;;;;16.64;84.27;98802.91;10334138;28;20061;-64
2023/09/22 05:39:30;;;;;;;2.45;0.60;;;;;;;16.65;84.54;98823.38;10344361;28;20115;-63
2023/09/22 05:44:32;;;;;;;1.15;0.75;;;;;;;16.59;84.00;98841.13;10348400;28;20042;-63
2023/09/22 05:49:34;;;;;;;2.85;0.80;;;;;;;16.64;84.14;98871.94;10344632;28;20184;-63
2023/09/22 05:54:35;;;;;;;2.95;0.60;;;;;;;16.57;84.47;98875.41;10334142;28;20046;-63
2023/09/22 05:59:37;;;;;;;2.25;0.95;;;;;;;16.59;84.79;98869.84;10344657;28;20065;-63
2023/09/22 06:04:38;;;;;;;1.83;0.80;;;;;;;16.57;84.92;98877.25;10344131;28;20049;-62
2023/09/22 06:09:40;;;;;;;1.65;0.60;;;;;;;16.60;85.22;98845.47;10336314;28;20756;-64
2023/09/22 06:14:42;;;;;;;1.58;0.73;;;;;;;16.66;84.50;98837.63;10333381;28;20114;-64
2023/09/22 06:19:43;;;;;;;3.78;0.80;;;;;;;16.72;84.01;98842.22;10343732;28;20523;-64
2023/09/22 06:24:45;;;;;;;1.52;0.60;;;;;;;16.75;84.02;98855.25;10342741;28;20085;-64
2023/09/22 06:29:46;;;;;;;2.75;0.52;;;;;;;16.88;83.39;98889.47;10350131;28;20165;-63
2023/09/22 06:34:48;;;;;;;1.15;0.50;;;;;;;16.76;83.55;98902.59;10348526;28;20056;-63
2023/09/22 06:39:49;;;;;;;3.60;0.65;;;;;;;16.57;83.67;98888.00;10341878;28;20057;-63
2023/09/22 06:44:51;;;;;;;3.75;0.50;;;;;;;16.57;83.84;98910.34;10352095;28;20070;-63
2023/09/22 06:49:52;;;;;;;2.38;0.70;;;;;;;16.63;83.90;98924.00;10350813;28;20136;-64
2023/09/22 06:54:53;;;;;;;6.75;0.75;;;;;;;16.52;84.19;98888.56;10353398;28;20695;-63
2023/09/22 06:59:55;;;;;;;1.52;0.47;;;;;;;16.75;84.02;98922.41;10351623;28;20363;-63
2023/09/22 07:04:57;;;;;;;1.27;0.65;;;;;;;16.75;83.49;98943.91;10351547;28;20157;-63
2023/09/22 07:09:59;;;;;;;1.27;0.63;;;;;;;16.75;84.30;98970.78;10349173;28;20069;-63
2023/09/22 07:15:01;;;;;;;2.08;0.50;;;;;;;16.79;83.89;98950.56;10350977;28;20046;-63
2023/09/22 07:20:04;;;;;;;2.30;0.60;;;;;;;16.88;83.71;98940.53;10334597;28;20057;-67
2023/09/22 07:25:06;;;;;;;2.00;0.98;;;;;;;16.78;83.48;98919.34;10349821;28;20639;-64
2023/09/22 07:30:10;;;;;;;4.00;0.80;;;;;;;16.86;83.71;98940.69;10339327;28;20547;-63
2023/09/22 07:35:11;;;;;;;2.50;0.90;;;;;;;16.73;83.95;98945.97;10350091;28;20052;-62
2023/09/22 07:40:12;;;;;;;1.15;0.85;;;;;;;16.77;84.03;98974.94;10348943;28;20714;-64
2023/09/22 07:45:14;;;;;;;1.10;0.80;;;;;;;16.88;84.17;98960.16;10351228;28;20057;-63
2023/09/22 07:50:15;;;;;;;2.35;0.52;;;;;;;16.87;84.03;98963.06;10350591;28;20481;-65
2023/09/22 07:55:18;;;;;;;2.10;0.73;;;;;;;16.93;84.25;98968.50;10345410;28;20076;-63
2023/09/22 08:00:20;;;;;;;2.33;0.75;;;;;;;16.89;82.92;98945.72;10349392;28;20056;-65
2023/09/22 08:05:21;;;;;;;2.33;0.63;;;;;;;17.06;83.19;98956.16;10351215;28;20045;-63
2023/09/22 08:10:23;;;;;;;2.67;0.43;;;;;;;17.08;82.86;98954.09;10347220;28;20767;-63
2023/09/22 08:15:26;;;;;;;9.13;0.93;;;;;;;17.17;82.49;98960.97;10348542;28;20061;-64
2023/09/22 08:20:28;;;;;;;1.85;0.45;;;;;;;17.22;81.62;98939.72;10305858;28;20061;-63
2023/09/22 08:25:29;;;;;;;2.97;0.50;;;;;;;17.20;81.00;98919.41;10305701;28;20117;-64
2023/09/22 08:30:31;;;;;;;4.55;0.65;;;;;;;17.39;80.35;98960.91;10307114;28;20062;-65
2023/09/22 08:35:32;;;;;;;2.30;0.45;;;;;;;17.64;79.99;98962.03;10310750;28;20373;-62
2023/09/22 08:40:34;;;;;;;2.97;0.40;;;;;;;17.88;77.64;98967.94;10303190;28;20046;-63
2023/09/22 08:45:40;;;;;;;1.95;0.45;;;;;;;17.98;77.20;98984.53;10305608;28;20137;-64
2023/09/22 08:50:41;;;;;;;2.60;0.43;;;;;;;17.76;76.25;98972.22;10306624;28;20054;-63
2023/09/22 08:55:43;;;;;;;1.92;0.82;;;;;;;17.65;74.22;98985.25;10308096;28;20516;-64
2023/09/22 09:00:51;;;;;;;2.53;0.93;;;;;;;17.57;73.57;98985.38;10312551;28;20056;-64
2023/09/22 09:06:06;;;;;;;2.65;0.90;;;;;;;17.58;74.64;98980.84;10308993;28;20054;-64
2023/09/22 09:11:09;;;;;;;1.23;0.63;;;;;;;17.70;73.79;98973.03;10299889;28;20107;-65
2023/09/22 09:16:12;;;;;;;3.63;0.60;;;;;;;17.84;71.72;98974.75;10318493;28;20125;-63
2023/09/22 09:21:14;;;;;;;1.60;0.50;;;;;;;17.96;72.23;98975.84;10308289;28;20112;-64
2023/09/22 09:26:29;;;;;;;1.33;0.50;;;;;;;18.24;72.01;98971.34;10303233;28;20271;-65
2023/09/22 09:31:45;;;;;;;1.67;0.60;;;;;;;18.58;68.81;98951.47;10324628;28;20658;-62
2023/09/22 09:36:47;;;;;;;2.83;0.70;;;;;;;18.57;67.58;98941.75;10303608;28;20281;-66
2023/09/22 09:41:50;;;;;;;3.35;0.70;;;;;;;18.81;67.89;98959.16;10305390;28;20327;-65
2023/09/22 09:46:51;;;;;;;1.63;0.70;;;;;;;19.15;65.93;98965.34;10303632;28;20438;-64
2023/09/22 09:51:52;;;;;;;1.85;0.40;;;;;;;18.95;65.43;98960.00;10302885;28;20054;-64
2023/09/22 09:56:54;;;;;;;0.88;0.38;;;;;;;18.69;63.82;98969.72;10302638;28;20066;-63
2023/09/22 10:01:56;;;;;;;1.27;0.30;;;;;;;18.40;63.73;98956.66;10306760;28;20140;-63
2023/09/22 10:06:59;;;;;;;0.50;0.20;;;;;;;18.68;64.35;98959.16;10314549;28;20050;-64
2023/09/22 10:12:02;;;;;;;1.52;0.35;;;;;;;18.85;62.90;98971.19;10311591;28;20467;-63
2023/09/22 10:17:19;;;;;;;2.95;0.82;;;;;;;18.88;62.99;98969.94;10313885;28;20120;-64
2023/09/22 10:22:20;;;;;;;1.83;0.50;;;;;;;18.66;61.63;98967.44;10312448;28;20053;-64
2023/09/22 10:27:29;;;;;;;2.35;0.98;;;;;;;18.54;62.41;98975.31;10313369;28;20376;-63
2023/09/22 10:32:31;;;;;;;1.08;0.22;;;;;;;18.64;59.55;98982.97;10310768;28;20128;-62
2023/09/22 10:37:35;;;;;;;2.60;0.60;;;;;;;18.91;59.36;98991.09;10312904;28;20065;-64
2023/09/22 10:42:46;;;;;;;1.23;0.40;;;;;;;19.80;58.70;98988.00;10310425;28;20187;-64
2023/09/22 10:47:49;;;;;;;0.88;0.40;;;;;;;20.55;57.00;98968.44;10310669;28;20053;-63
2023/09/22 10:52:58;;;;;;;3.80;0.60;;;;;;;20.69;52.92;98986.25;10308487;28;20046;-65
2023/09/22 10:58:01;;;;;;;1.98;0.38;;;;;;;21.17;52.03;98984.78;10353647;28;20054;-63
2023/09/22 11:03:11;;;;;;;1.35;0.38;;;;;;;21.51;50.69;98972.56;10341264;28;20072;-63
2023/09/22 11:08:14;;;;;;;3.05;0.40;;;;;;;21.67;48.55;98926.97;10350396;28;20050;-63
2023/09/22 11:13:15;;;;;;;6.23;0.63;;;;;;;22.21;48.34;98975.81;10347248;28;20649;-63
2023/09/22 11:18:21;;;;;;;2.15;0.55;;;;;;;22.45;47.65;98987.59;10349357;28;20069;-64
2023/09/22 11:23:27;;;;;;;1.85;0.82;;;;;;;21.67;48.32;98989.25;10351703;28;20045;-64
2023/09/22 11:28:28;;;;;;;2.58;0.57;;;;;;;20.91;49.07;98967.75;10336031;28;20046;-65
2023/09/22 11:33:29;;;;;;;1.88;0.60;;;;;;;21.19;49.58;98969.94;10345511;28;20538;-64
2023/09/22 11:38:32;;;;;;;1.95;0.57;;;;;;;21.08;50.55;98978.81;10345776;28;20068;-63
2023/09/22 11:43:38;;;;;;;2.05;0.22;;;;;;;20.71;51.63;98972.50;10343422;28;22171;-62
2023/09/22 11:48:59;;;;;;;2.47;0.90;;;;;;;20.43;51.90;98966.44;10344752;28;20424;-64
2023/09/22 11:54:02;;;;;;;2.42;0.43;;;;;;;21.08;50.30;98962.59;10298962;28;20061;-64
2023/09/22 11:59:08;;;;;;;2.42;0.40;;;;;;;22.48;48.00;98981.69;10308320;28;20054;-63
2023/09/22 12:04:09;;;;;;;2.90;0.40;;;;;;;23.14;43.82;98954.53;10310854;28;20050;-63
2023/09/22 12:09:12;;;;;;;1.92;0.25;;;;;;;24.23;42.66;98958.38;10314036;28;20132;-63
2023/09/22 12:14:14;;;;;;;2.30;0.73;;;;;;;24.55;42.49;98949.66;10345192;28;20673;-63
2023/09/22 12:19:16;;;;;;;3.53;0.65;;;;;;;24.13;43.32;98948.13;10349394;28;20045;-63
2023/09/22 12:24:18;;;;;;;1.55;0.30;;;;;;;25.68;39.52;98940.38;10346099;28;20046;-63
2023/09/22 12:29:20;;;;;;;1.52;0.60;;;;;;;27.09;35.42;98920.34;10348976;28;20046;-62
2023/09/22 12:34:21;;;;;;;1.75;0.50;;;;;;;27.79;34.88;98909.19;10339095;28;20137;-64
2023/09/22 12:39:23;;;;;;;13.15;1.42;;;;;;;27.72;32.44;98933.22;10346378;28;20049;-62
2023/09/22 12:44:24;;;;;;;3.05;0.60;;;;;;;26.54;33.96;98946.16;10346259;28;20054;-64
2023/09/22 12:49:26;;;;;;;2.10;0.50;;;;;;;24.92;37.88;98941.00;10346078;28;20821;-63
2023/09/22 12:54:27;;;;;;;3.17;0.47;;;;;;;25.24;38.75;98951.25;10348571;28;20042;-62
2023/09/22 12:59:29;;;;;;;4.00;1.25;;;;;;;24.55;39.55;98938.78;10344052;28;20074;-63
2023/09/22 13:04:33;;;;;;;1.48;0.35;;;;;;;23.87;39.89;98949.56;10346808;28;20052;-63
2023/09/22 13:09:34;;;;;;;2.38;0.95;;;;;;;23.43;41.39;98938.31;10309972;28;20145;-63
2023/09/22 13:14:36;;;;;;;2.03;0.52;;;;;;;23.22;41.20;98923.47;10317637;28;20141;-63
2023/09/22 13:19:38;;;;;;;2.35;0.40;;;;;;;23.00;42.51;98924.06;10307153;28;20139;-64
2023/09/22 13:24:39;;;;;;;3.53;0.70;;;;;;;22.80;42.30;98929.84;10306750;28;20780;-63
2023/09/22 13:29:42;;;;;;;0.93;0.40;;;;;;;22.46;42.62;98929.59;10307279;28;20058;-62
2023/09/22 13:34:44;;;;;;;3.70;0.60;;;;;;;23.52;40.84;98931.44;10315138;28;20149;-65
2023/09/22 13:39:46;;;;;;;3.15;1.42;;;;;;;23.54;40.70;98910.31;10365128;28;20063;-64
2023/09/22 13:44:47;;;;;;;1.45;0.47;;;;;;;23.51;40.65;98909.94;10329560;28;20070;-63
2023/09/22 13:49:50;;;;;;;2.22;0.80;;;;;;;23.97;39.61;98910.84;10308664;28;20061;-65
2023/09/22 13:54:55;;;;;;;2.38;0.40;;;;;;;24.20;40.40;98906.34;10309165;28;20065;-63
2023/09/22 13:59:57;;;;;;;2.75;0.77;;;;;;;23.84;40.25;98914.69;10310178;28;20089;-63
2023/09/22 14:04:59;;;;;;;1.83;0.60;;;;;;;23.47;40.52;98896.84;10311926;28;20042;-63
2023/09/22 14:10:00;;;;;;;1.30;0.40;;;;;;;23.50;42.08;98905.59;10306819;28;20042;-63
2023/09/22 14:15:02;;;;;;;2.13;0.50;;;;;;;23.20;41.28;98907.44;10306292;28;20811;-62
2023/09/22 14:20:05;;;;;;;1.02;0.40;;;;;;;22.72;42.33;98900.38;10307737;28;20076;-64
2023/09/22 14:25:08;;;;;;;2.17;0.63;;;;;;;22.51;43.75;98905.31;10305494;28;20121;-63
2023/09/22 14:30:11;;;;;;;1.95;0.43;;;;;;;22.57;43.81;98904.38;10307095;28;20057;-63
2023/09/22 14:35:13;;;;;;;1.75;0.50;;;;;;;22.44;44.64;98899.16;10308614;28;20377;-62
2023/09/22 14:40:14;;;;;;;2.25;0.65;;;;;;;22.23;45.22;98895.94;10306572;28;20145;-63
2023/09/22 14:45:16;;;;;;;2.13;0.75;;;;;;;22.12;45.30;98904.03;10301728;28;20188;-63
2023/09/22 14:50:19;;;;;;;1.00;0.50;;;;;;;21.88;45.86;98891.25;10308281;28;20888;-63
2023/09/22 14:55:20;;;;;;;1.52;0.60;;;;;;;21.75;46.37;98914.97;10312527;28;20107;-63
2023/09/22 15:00:22;;;;;;;1.63;0.68;;;;;;;21.50;46.36;98910.53;10311667;28;20050;-64
2023/09/22 15:05:23;;;;;;;1.40;0.52;;;;;;;21.44;47.17;98906.81;10311565;28;20104;-64
2023/09/22 15:10:24;;;;;;;2.58;0.82;;;;;;;21.44;47.63;98895.97;10314809;28;20385;-62
2023/09/22 15:15:26;;;;;;;1.92;0.40;;;;;;;21.41;47.64;98901.84;10313302;28;20152;-64
2023/09/22 15:20:27;;;;;;;1.83;0.50;;;;;;;21.36;47.68;98907.94;10309445;28;20081;-63
2023/09/22 15:25:28;;;;;;;2.25;0.40;;;;;;;20.99;47.88;98877.38;10313633;28;20184;-62
2023/09/22 15:30:30;;;;;;;1.67;0.93;;;;;;;21.08;48.80;98918.47;10318512;28;20050;-63
2023/09/22 15:35:31;;;;;;;0.95;0.45;;;;;;;20.82;48.93;98898.75;10310432;28;20050;-63
2023/09/22 15:40:33;;;;;;;1.20;0.60;;;;;;;21.01;49.45;98932.06;10314483;28;21152;-64
2023/09/22 15:45:34;;;;;;;3.05;1.17;;;;;;;20.90;49.51;98928.22;10309988;28;20054;-63
2023/09/22 15:50:36;;;;;;;2.58;0.70;;;;;;;20.89;49.75;98941.97;10314377;28;20046;-62
2023/09/22 15:55:37;;;;;;;1.40;0.43;;;;;;;20.82;49.44;98932.03;10308638;28;20372;-65
2023/09/22 16:00:39;;;;;;;1.67;0.50;;;;;;;20.77;50.01;98931.06;10310886;28;20050;-62
2023/09/22 16:05:41;;;;;;;3.03;1.02;;;;;;;20.61;50.93;98935.09;10309464;28;20182;-61
2023/09/22 16:10:43;;;;;;;1.50;0.57;;;;;;;20.56;51.36;98932.25;10307767;28;20144;-65
2023/09/22 16:15:47;;;;;;;1.02;0.30;;;;;;;20.58;51.39;98924.72;10316597;28;20137;-63
2023/09/22 16:20:48;;;;;;;0.73;0.30;;;;;;;20.52;51.49;98933.72;10310193;28;20053;-63
2023/09/22 16:25:50;;;;;;;1.75;1.17;;;;;;;20.38;52.22;98928.44;10317863;28;20045;-63
2023/09/22 16:30:55;;;;;;;2.67;0.85;;;;;;;20.33;52.42;98939.06;10353679;28;20054;-63
2023/09/22 16:35:57;;;;;;;2.13;0.50;;;;;;;20.19;52.48;98913.19;10331425;28;20116;-64
2023/09/22 16:40:58;;;;;;;1.92;0.73;;;;;;;20.21;52.84;98935.44;10306903;28;20050;-62
2023/09/22 16:46:00;;;;;;;2.20;0.60;;;;;;;20.21;53.03;98936.25;10305588;28;20058;-63
2023/09/22 16:51:03;;;;;;;1.92;0.40;;;;;;;20.24;53.20;98935.00;10307084;28;20057;-62
2023/09/22 16:56:10;;;;;;;;;;;;;;;20.16;53.14;98938.75;10316849;28;20077;-64
2023/09/22 17:01:11;;;;;;;2.08;0.50;;;;;;;20.09;53.70;98928.00;10306389;28;19921;-63
2023/09/22 17:06:13;;;;;;;4.68;1.77;;;;;;;19.97;53.87;98894.66;10310477;28;20054;-64
2023/09/22 17:11:15;;;;;;;0.93;0.47;;;;;;;20.09;53.94;98916.41;10308525;28;20055;-64
2023/09/22 17:16:16;;;;;;;2.65;0.68;;;;;;;19.98;54.13;98919.78;10311230;28;20137;-62
2023/09/22 17:21:18;;;;;;;2.00;1.02;;;;;;;19.92;54.69;99056.47;10314297;28;20505;-63
2023/09/22 17:26:32;;;;;;;4.28;1.10;;;;;;;17.90;73.46;99043.13;10309026;28;20038;-63
2023/09/22 17:31:34;;;;;;;3.20;0.45;;;;;;;17.54;76.62;99049.53;10303385;28;20055;-62
2023/09/22 17:36:35;;;;;;;1.85;0.95;;;;;;;17.71;77.27;99077.78;10302908;28;20115;-62
2023/09/22 17:41:37;;;;;;;3.25;0.55;;;;;;;17.84;78.13;99087.78;10298845;28;20451;-64
2023/09/22 17:46:39;;;;;;;2.50;1.15;;;;;;;17.69;74.71;99098.69;10302302;28;20069;-63
2023/09/22 17:51:41;;;;;;;3.80;0.95;;;;;;;17.63;76.84;99107.53;10303374;28;20057;-63
2023/09/22 17:56:42;;;;;;;2.33;0.68;;;;;;;17.19;77.85;99077.25;10303242;28;20670;-63
2023/09/22 18:01:50;;;;;;;2.15;0.55;;;;;;;17.35;77.03;99099.47;10301047;28;20620;-62
2023/09/22 18:06:53;;;;;;;1.60;0.60;;;;;;;17.36;77.92;99101.16;10303918;28;20447;-64
2023/09/22 18:11:55;;;;;;;2.20;0.90;;;;;;;17.25;79.00;99100.66;10299824;28;20752;-64
2023/09/22 18:16:57;;;;;;;1.77;0.40;;;;;;;17.22;77.24;99090.28;10304357;28;20536;-63
2023/09/22 18:21:58;;;;;;;3.83;1.08;;;;;;;17.22;79.79;99111.81;10302961;28;20050;-64
2023/09/22 18:27:00;;;;;;;2.50;0.63;;;;;;;17.14;78.14;99114.63;10311132;28;20132;-63
2023/09/22 18:32:01;;;;;;;1.27;0.50;;;;;;;17.05;78.09;99102.34;10310747;28;20093;-63
2023/09/22 18:37:02;;;;;;;3.08;0.55;;;;;;;16.99;77.91;99103.13;10309560;28;20148;-63
2023/09/22 18:42:04;;;;;;;4.32;0.52;;;;;;;16.88;76.98;99117.91;10309913;28;20049;-62
2023/09/22 18:47:06;;;;;;;1.23;0.70;;;;;;;16.88;77.96;99121.44;10310210;28;20787;-63
2023/09/22 18:52:08;;;;;;;2.88;0.70;;;;;;;16.89;77.02;99127.63;10310762;28;20058;-63
2023/09/22 18:57:10;;;;;;;3.03;0.80;;;;;;;16.86;77.11;99118.06;10311739;28;20073;-63
2023/09/22 19:02:11;;;;;;;4.50;0.95;;;;;;;16.87;77.56;99149.31;10311729;28;20133;-62
2023/09/22 19:07:16;;;;;;;2.35;0.82;;;;;;;16.86;78.85;99155.69;10311570;28;20077;-64
2023/09/22 19:12:19;;;;;;;3.88;1.60;;;;;;;16.79;79.26;99162.84;10311219;28;20060;-63
2023/09/22 19:17:22;;;;;;;2.47;1.00;;;;;;;16.72;79.86;99170.00;10308128;28;20066;-63
2023/09/22 19:22:24;;;;;;;2.63;0.60;;;;;;;16.84;79.45;99194.53;10307260;28;20057;-63
2023/09/22 19:27:25;;;;;;;2.72;0.90;;;;;;;16.74;79.25;99198.38;10313752;28;20050;-62
2023/09/22 19:32:27;;;;;;;4.25;0.85;;;;;;;16.70;81.56;99207.00;10312712;28;20050;-64
2023/09/22 19:37:29;;;;;;;2.97;1.02;;;;;;;16.65;79.61;99209.41;10311693;28;20154;-63
2023/09/22 19:42:30;;;;;;;3.45;0.50;;;;;;;16.50;79.15;99221.00;10307814;28;20048;-62
2023/09/22 19:47:32;;;;;;;1.80;0.80;;;;;;;16.29;79.74;99200.28;10345641;28;20244;-62
2023/09/22 19:52:33;;;;;;;3.08;0.77;;;;;;;16.31;80.39;99205.47;10349706;28;20049;-64
2023/09/22 19:57:37;;;;;;;5.10;0.82;;;;;;;16.14;80.54;99211.03;10343700;28;20052;-62
2023/09/22 20:02:42;;;;;;;2.87;1.17;;;;;;;16.18;80.64;99236.50;10348549;28;20623;-64
2023/09/22 20:07:44;;;;;;;3.50;1.02;;;;;;;16.08;81.27;99228.69;10347805;28;20284;-62
2023/09/22 20:12:46;;;;;;;3.42;1.38;;;;;;;16.09;81.30;99240.25;10348616;28;20191;-63
2023/09/22 20:17:47;;;;;;;2.65;0.80;;;;;;;15.93;81.17;99235.06;10348179;28;20049;-62
2023/09/22 20:22:49;;;;;;;1.98;0.90;;;;;;;15.96;81.58;99242.75;10349132;28;20053;-64
2023/09/22 20:27:50;;;;;;;3.63;1.13;;;;;;;15.99;81.67;99255.81;10342998;28;20042;-64
2023/09/22 20:32:52;;;;;;;2.17;1.00;;;;;;;15.90;81.93;99263.94;10345188;28;20058;-63
2023/09/22 20:37:54;;;;;;;2.28;0.82;;;;;;;15.85;81.23;99265.50;10345076;28;20053;-61
2023/09/22 20:42:55;;;;;;;2.30;0.90;;;;;;;15.81;81.48;99264.22;10350211;28;20783;-64
2023/09/22 20:48:03;;;;;;;2.03;1.00;;;;;;;15.65;81.88;99254.41;10346454;28;20054;-63
2023/09/22 20:53:04;;;;;;;2.65;0.85;;;;;;;15.64;81.90;99269.69;10345407;28;20107;-62
2023/09/22 20:58:06;;;;;;;2.50;0.80;;;;;;;15.63;82.43;99277.91;10342827;28;20115;-62
2023/09/22 21:03:15;;;;;;;1.23;0.57;;;;;;;15.54;82.30;99261.88;10344636;28;20053;-61
2023/09/22 21:08:17;;;;;;;2.88;0.70;;;;;;;15.58;82.35;99274.94;10347920;28;20038;-62
2023/09/22 21:13:19;;;;;;;1.92;0.50;;;;;;;15.55;83.54;99279.66;10349820;28;20583;-64
2023/09/22 21:18:24;;;;;;;1.63;0.73;;;;;;;15.53;82.86;99300.44;10343461;28;20054;-62
2023/09/22 21:23:25;;;;;;;2.45;1.40;;;;;;;15.45;83.14;99308.56;10345012;28;20996;-64
2023/09/22 21:28:27;;;;;;;2.47;0.93;;;;;;;15.38;83.06;99312.94;10334793;28;20704;-64
2023/09/22 21:33:29;;;;;;;1.30;0.60;;;;;;;15.49;82.49;99317.91;10343941;28;20044;-63
2023/09/22 21:38:31;;;;;;;2.88;0.90;;;;;;;15.47;82.69;99322.59;10342990;28;20759;-64
2023/09/22 21:43:32;;;;;;;2.05;0.65;;;;;;;15.34;82.54;99311.63;10341923;28;20046;-63
2023/09/22 21:48:35;;;;;;;2.25;0.70;;;;;;;15.38;82.92;99331.72;10344849;28;20053;-62
2023/09/22 21:53:38;;;;;;;2.78;0.77;;;;;;;15.06;83.53;99324.69;10345623;28;20214;-63
2023/09/22 21:58:40;;;;;;;1.67;0.57;;;;;;;15.15;83.83;99337.88;10345538;28;20045;-63
2023/09/22 22:03:42;;;;;;;2.53;0.85;;;;;;;15.14;83.57;99320.13;10353905;28;20661;-63
2023/09/22 22:08:47;;;;;;;2.20;0.60;;;;;;;15.29;84.08;99352.38;10348753;28;20049;-61
2023/09/22 22:13:48;;;;;;;2.27;0.60;;;;;;;15.25;83.77;99361.78;10348070;28;20678;-64
2023/09/22 22:18:50;;;;;;;1.98;0.70;;;;;;;15.18;84.05;99367.00;10350280;28;20300;-64
2023/09/22 22:23:53;;;;;;;2.80;0.90;;;;;;;15.29;83.84;99383.72;10350732;28;20050;-63
2023/09/22 22:28:57;;;;;;;1.80;0.90;;;;;;;15.17;83.18;99402.88;10351660;28;20069;-63
2023/09/22 22:33:59;;;;;;;1.35;0.50;;;;;;;15.10;82.81;99395.69;10349428;28;20128;-65
2023/09/22 22:39:00;;;;;;;2.47;1.00;;;;;;;14.99;81.91;99394.22;10349047;28;20064;-65
2023/09/22 22:44:02;;;;;;;2.75;0.68;;;;;;;15.12;81.77;99417.81;10350492;28;20046;-63
2023/09/22 22:49:05;;;;;;;2.33;0.40;;;;;;;15.14;80.60;99438.06;10351643;28;20111;-64
2023/09/22 22:54:07;;;;;;;0.95;0.40;;;;;;;15.13;79.60;99439.09;10350753;28;20553;-62
2023/09/22 22:59:09;;;;;;;0.73;0.20;;;;;;;15.05;79.60;99447.13;10354305;28;20061;-65
2023/09/22 23:04:12;;;;;;;1.08;0.20;;;;;;;15.09;80.04;99458.38;10309504;28;20112;-64
2023/09/22 23:09:18;;;;;;;1.57;0.27;;;;;;;15.20;78.89;99461.50;10310468;28;20450;-64
2023/09/22 23:14:22;;;;;;;1.95;0.98;;;;;;;15.10;78.65;99466.25;10313095;28;20080;-63
2023/09/22 23:19:24;;;;;;;0.30;0.20;;;;;;;15.00;78.80;99458.38;10311091;28;20636;-63
2023/09/22 23:24:26;;;;;;;1.40;0.40;;;;;;;15.12;78.76;99490.19;10312101;28;20839;-66
2023/09/22 23:29:28;;;;;;;1.05;0.30;;;;;;;15.09;77.81;99490.53;10311765;28;20136;-63